Time;durP1;ratioP1;P1;durP2;ratioP2;P2;SDS_P1;SDS_P2;PMS_P1;PMS_P2;Temp;Humidity;BMP_temperature;BMP_pressure;BME280_temperature;BME280_humidity;BME280_pressure;Samples;Min_cycle;Max_cycle;Signal;HPM_P1;HPM_P2
2023/04/03 00:05:28;;;;;;;;;;;4.05;22.48;;;;;;2671330;76;20493;-92
2023/04/03 00:08:57;;;;;;;;;;;4.01;22.33;;;;;;2671045;76;20435;-92
2023/04/03 00:12:33;;;;;;;;;;;3.89;22.10;;;;;;2671259;76;20434;-92
2023/04/03 00:16:03;;;;;;;;;;;3.83;22.11;;;;;;2671435;76;20417;-92
2023/04/03 00:19:34;;;;;;;;;;;3.83;22.32;;;;;;2670541;76;20927;-92
2023/04/03 00:23:08;;;;;;;;;;;3.83;22.35;;;;;;2670887;76;20914;-93
2023/04/03 00:26:42;;;;;;;;;;;3.88;22.47;;;;;;2671653;76;20433;-92
2023/04/03 00:30:15;;;;;;;;;;;3.88;22.47;;;;;;2671333;76;20347;-92
2023/04/03 00:33:42;;;;;;;;;;;3.90;22.56;;;;;;2671220;76;20400;-92
2023/04/03 00:37:13;;;;;;;;;;;3.89;22.42;;;;;;2671316;76;20454;-92
2023/04/03 00:40:46;;;;;;;;;;;3.83;22.31;;;;;;2671122;76;20485;-92
2023/04/03 00:44:14;;;;;;;;;;;3.84;22.55;;;;;;2671312;76;20462;-92
2023/04/03 00:47:51;;;;;;;;;;;3.83;22.70;;;;;;2670992;76;20421;-92
2023/04/03 00:51:37;;;;;;;;;;;3.83;22.71;;;;;;2671636;76;20364;-92
2023/04/03 00:55:14;;;;;;;;;;;3.77;22.70;;;;;;2671488;76;20537;-92
2023/04/03 00:59:04;;;;;;;;;;;3.73;22.87;;;;;;2670909;76;20455;-92
2023/04/03 01:02:34;;;;;;;;;;;3.73;22.82;;;;;;2671099;76;20424;-92
2023/04/03 01:06:05;;;;;;;;;;;3.76;22.85;;;;;;2672013;76;20479;-93
2023/04/03 01:09:39;;;;;;;;;;;3.69;22.93;;;;;;2670866;76;20320;-92
2023/04/03 01:13:06;;;;;;;;;;;3.67;23.03;;;;;;2671456;76;20794;-92
2023/04/03 01:16:40;;;;;;;;;;;3.69;23.15;;;;;;2672219;76;20468;-93
2023/04/03 01:20:11;;;;;;;;;;;3.70;23.22;;;;;;2671034;76;20343;-93
2023/04/03 01:23:47;;;;;;;;;;;3.75;23.32;;;;;;2670790;76;21374;-92
2023/04/03 01:27:34;;;;;;;;;;;3.73;23.17;;;;;;2671415;76;20332;-93
2023/04/03 01:31:04;;;;;;;;;;;3.75;23.14;;;;;;2670662;76;20911;-93
2023/04/03 01:34:35;;;;;;;;;;;3.80;23.04;;;;;;2671709;76;20326;-93
2023/04/03 01:38:25;;;;;;;;;;;3.88;23.23;;;;;;2671172;76;20357;-93
2023/04/03 01:41:51;;;;;;;;;;;3.87;23.08;;;;;;2671311;76;20785;-93
2023/04/03 01:45:22;;;;;;;;;;;3.90;23.28;;;;;;2671667;76;20318;-94
2023/04/03 01:49:00;;;;;;;;;;;3.92;23.21;;;;;;2671268;76;20439;-93
2023/04/03 01:52:31;;;;;;;;;;;3.91;23.14;;;;;;2671029;76;20312;-93
2023/04/03 01:56:04;;;;;;;;;;;3.93;23.21;;;;;;2671883;76;20702;-93
2023/04/03 01:59:33;;;;;;;;;;;4.01;23.39;;;;;;2671170;76;20315;-93
2023/04/03 02:03:06;;;;;;;;;;;3.99;23.22;;;;;;2671284;76;20339;-92
2023/04/03 02:06:35;;;;;;;;;;;3.94;23.19;;;;;;2672614;76;20426;-93
2023/04/03 02:10:04;;;;;;;;;;;3.95;23.31;;;;;;2671406;76;20458;-93
2023/04/03 02:13:40;;;;;;;;;;;3.99;23.43;;;;;;2671469;76;20448;-93
2023/04/03 02:17:15;;;;;;;;;;;4.00;23.33;;;;;;2671343;76;20418;-92
2023/04/03 02:20:41;;;;;;;;;;;4.02;23.31;;;;;;2671786;76;20392;-92
2023/04/03 02:24:09;;;;;;;;;;;4.05;23.30;;;;;;2672154;76;20307;-92
2023/04/03 02:27:37;;;;;;;;;;;4.04;23.11;;;;;;2672379;76;20446;-91
2023/04/03 02:31:06;;;;;;;;;;;4.00;23.08;;;;;;2672799;76;20418;-91
2023/04/03 02:34:34;;;;;;;;;;;3.94;22.94;;;;;;2672476;76;20669;-92
2023/04/03 02:38:02;;;;;;;;;;;3.92;23.02;;;;;;2672738;76;20421;-92
2023/04/03 02:41:35;;;;;;;;;;;3.93;23.00;;;;;;2672793;76;20298;-92
2023/04/03 02:45:00;;;;;;;;;;;3.97;23.05;;;;;;2672630;76;20348;-91
2023/04/03 02:48:28;;;;;;;;;;;3.94;22.82;;;;;;2673070;76;20366;-91
2023/04/03 02:51:57;;;;;;;;;;;3.88;22.66;;;;;;2672769;76;20425;-91
2023/04/03 02:55:25;;;;;;;;;;;3.84;22.82;;;;;;2672908;76;20313;-92
2023/04/03 02:58:54;;;;;;;;;;;3.91;23.08;;;;;;2672136;76;20774;-91
2023/04/03 03:02:22;;;;;;;;;;;3.88;22.88;;;;;;2671744;76;20464;-91
2023/04/03 03:05:50;;;;;;;;;;;3.89;22.88;;;;;;2672322;76;20983;-91
2023/04/03 03:09:18;;;;;;;;;;;3.85;22.95;;;;;;2673162;76;20924;-92
2023/04/03 03:12:46;;;;;;;;;;;3.91;22.90;;;;;;2672640;76;21131;-92
2023/04/03 03:16:14;;;;;;;;;;;3.94;22.91;;;;;;2672090;76;20425;-91
2023/04/03 03:19:42;;;;;;;;;;;3.97;22.79;;;;;;2672425;76;20801;-91
2023/04/03 03:23:10;;;;;;;;;;;3.95;22.72;;;;;;2672980;76;20981;-91
2023/04/03 03:26:38;;;;;;;;;;;3.95;22.63;;;;;;2672932;76;20740;-91
2023/04/03 03:30:06;;;;;;;;;;;4.01;22.77;;;;;;2673425;76;20783;-92
2023/04/03 03:33:34;;;;;;;;;;;4.03;22.55;;;;;;2672620;76;20369;-92
2023/04/03 03:37:03;;;;;;;;;;;3.95;22.58;;;;;;2673128;76;20314;-92
2023/04/03 03:40:31;;;;;;;;;;;4.00;22.79;;;;;;2673033;76;20330;-92
2023/04/03 03:43:59;;;;;;;;;;;3.95;22.86;;;;;;2672505;76;20317;-92
2023/04/03 03:47:27;;;;;;;;;;;4.01;22.87;;;;;;2672750;76;20341;-91
2023/04/03 03:50:55;;;;;;;;;;;4.02;22.77;;;;;;2672599;76;20341;-92
2023/04/03 03:54:23;;;;;;;;;;;3.98;22.59;;;;;;2672858;76;20433;-91
2023/04/03 03:57:51;;;;;;;;;;;4.00;22.80;;;;;;2672672;76;20325;-92
2023/04/03 04:01:22;;;;;;;;;;;3.99;22.82;;;;;;2672571;76;20350;-92
2023/04/03 04:04:49;;;;;;;;;;;3.97;22.57;;;;;;2672912;76;20504;-91
2023/04/03 04:08:17;;;;;;;;;;;3.90;22.38;;;;;;2672597;76;20449;-92
2023/04/03 04:11:45;;;;;;;;;;;3.86;22.65;;;;;;2673122;76;20435;-92
2023/04/03 04:15:13;;;;;;;;;;;3.86;22.69;;;;;;2672454;76;20440;-91
2023/04/03 04:18:41;;;;;;;;;;;3.88;22.63;;;;;;2672535;76;20443;-92
2023/04/03 04:22:09;;;;;;;;;;;3.85;22.61;;;;;;2671893;76;20444;-92
2023/04/03 04:25:38;;;;;;;;;;;3.84;22.63;;;;;;2672524;76;20436;-91
2023/04/03 04:29:06;;;;;;;;;;;3.83;22.61;;;;;;2672813;76;20487;-92
2023/04/03 04:32:34;;;;;;;;;;;3.85;22.56;;;;;;2672754;76;20491;-91
2023/04/03 04:36:02;;;;;;;;;;;3.86;22.61;;;;;;2672359;76;20452;-92
2023/04/03 04:39:30;;;;;;;;;;;3.84;22.60;;;;;;2672934;76;20473;-92
2023/04/03 04:42:58;;;;;;;;;;;3.83;22.47;;;;;;2672755;76;20465;-91
2023/04/03 04:46:26;;;;;;;;;;;3.79;22.47;;;;;;2672655;76;20459;-92
2023/04/03 04:49:55;;;;;;;;;;;3.85;22.59;;;;;;2672398;76;20430;-92
2023/04/03 04:53:23;;;;;;;;;;;3.84;22.47;;;;;;2672316;76;20966;-92
2023/04/03 04:56:51;;;;;;;;;;;3.75;21.98;;;;;;2672343;76;20484;-92
2023/04/03 05:00:19;;;;;;;;;;;3.85;22.37;;;;;;2672202;76;20414;-92
2023/04/03 05:03:47;;;;;;;;;;;3.83;22.05;;;;;;2673119;76;20880;-92
2023/04/03 05:07:15;;;;;;;;;;;3.79;22.01;;;;;;2672502;76;20435;-91
2023/04/03 05:10:44;;;;;;;;;;;3.80;22.25;;;;;;2671990;76;20420;-92
2023/04/03 05:14:12;;;;;;;;;;;3.83;22.23;;;;;;2672599;76;20426;-91
2023/04/03 05:17:40;;;;;;;;;;;3.86;22.22;;;;;;2672586;76;20405;-92
2023/04/03 05:21:08;;;;;;;;;;;3.94;22.24;;;;;;2672864;76;20435;-92
2023/04/03 05:24:36;;;;;;;;;;;4.02;21.87;;;;;;2672152;76;20433;-92
2023/04/03 05:28:04;;;;;;;;;;;4.09;21.95;;;;;;2670785;76;20457;-92
2023/04/03 05:31:32;;;;;;;;;;;4.16;21.93;;;;;;2670771;76;20478;-92
2023/04/03 05:35:00;;;;;;;;;;;4.14;21.68;;;;;;2668045;76;20466;-92
2023/04/03 05:38:28;;;;;;;;;;;4.18;21.68;;;;;;2668078;76;20475;-92
2023/04/03 05:41:56;;;;;;;;;;;4.23;21.46;;;;;;2670330;76;20686;-92
2023/04/03 05:45:25;;;;;;;;;;;4.31;21.65;;;;;;2671840;76;20911;-92
2023/04/03 05:48:53;;;;;;;;;;;4.39;21.47;;;;;;2671506;76;20780;-92
2023/04/03 05:52:21;;;;;;;;;;;4.49;21.36;;;;;;2670951;76;21048;-92
2023/04/03 05:55:49;;;;;;;;;;;4.53;21.00;;;;;;2672068;76;20962;-92
2023/04/03 05:59:17;;;;;;;;;;;4.54;20.59;;;;;;2672323;76;20907;-92
2023/04/03 06:02:45;;;;;;;;;;;4.60;21.12;;;;;;2671781;76;20719;-92
2023/04/03 06:06:13;;;;;;;;;;;4.68;20.93;;;;;;2670985;76;20426;-92
2023/04/03 06:09:42;;;;;;;;;;;4.77;20.76;;;;;;2670062;76;20426;-91
2023/04/03 06:13:10;;;;;;;;;;;4.91;20.86;;;;;;2672215;76;20946;-93
2023/04/03 06:16:38;;;;;;;;;;;5.03;20.54;;;;;;2672755;76;20543;-92
2023/04/03 06:20:07;;;;;;;;;;;5.13;20.56;;;;;;2672276;76;20403;-92
2023/04/03 06:23:35;;;;;;;;;;;5.10;20.19;;;;;;2672683;76;20432;-92
2023/04/03 06:27:03;;;;;;;;;;;5.23;20.42;;;;;;2672507;76;20411;-92
2023/04/03 06:30:33;;;;;;;;;;;5.31;20.17;;;;;;2672824;76;20470;-92
2023/04/03 06:34:02;;;;;;;;;;;5.39;20.05;;;;;;2672146;76;20417;-92
2023/04/03 06:37:30;;;;;;;;;;;5.54;20.27;;;;;;2673221;76;20416;-92
2023/04/03 06:40:58;;;;;;;;;;;5.65;20.15;;;;;;2671538;76;20429;-92
2023/04/03 06:44:26;;;;;;;;;;;5.68;19.59;;;;;;2670947;76;20437;-92
2023/04/03 06:47:55;;;;;;;;;;;5.71;19.58;;;;;;2670791;76;20447;-90
2023/04/03 06:51:23;;;;;;;;;;;5.81;19.31;;;;;;2672573;76;20468;-92
2023/04/03 06:54:56;;;;;;;;;;;5.97;19.36;;;;;;2670725;76;21083;-92
2023/04/03 06:58:21;;;;;;;;;;;6.06;18.60;;;;;;2672690;76;20796;-92
2023/04/03 07:01:50;;;;;;;;;;;6.20;18.57;;;;;;2672456;76;20435;-92
2023/04/03 07:05:18;;;;;;;;;;;6.20;17.46;;;;;;2672253;76;20426;-92
2023/04/03 07:08:47;;;;;;;;;;;6.38;18.49;;;;;;2672056;76;20478;-92
2023/04/03 07:12:16;;;;;;;;;;;6.56;18.64;;;;;;2672592;76;20308;-92
2023/04/03 07:15:44;;;;;;;;;;;6.51;17.41;;;;;;2673113;76;20444;-92
2023/04/03 07:19:12;;;;;;;;;;;6.38;16.29;;;;;;2672859;76;20417;-92
2023/04/03 07:22:40;;;;;;;;;;;6.41;16.42;;;;;;2672728;76;20476;-91
2023/04/03 07:26:09;;;;;;;;;;;6.48;15.99;;;;;;2671942;76;20436;-92
2023/04/03 07:29:37;;;;;;;;;;;6.76;16.13;;;;;;2672022;76;20423;-92
2023/04/03 07:33:06;;;;;;;;;;;6.85;15.80;;;;;;2671684;76;20430;-93
2023/04/03 07:36:34;;;;;;;;;;;7.00;15.59;;;;;;2670612;76;20905;-92
2023/04/03 07:40:03;;;;;;;;;;;7.08;14.82;;;;;;2672478;76;20312;-92
2023/04/03 07:43:32;;;;;;;;;;;7.30;15.47;;;;;;2671175;76;20529;-92
2023/04/03 07:47:00;;;;;;;;;;;7.19;13.67;;;;;;2672577;76;20424;-92
2023/04/03 07:50:30;;;;;;;;;;;7.31;14.08;;;;;;2672103;76;20432;-92
2023/04/03 07:53:58;;;;;;;;;;;7.37;13.81;;;;;;2672607;76;20451;-92
2023/04/03 07:57:26;;;;;;;;;;;7.39;13.91;;;;;;2672594;76;20872;-92
2023/04/03 08:00:54;;;;;;;;;;;7.60;14.40;;;;;;2674266;76;20463;-92
2023/04/03 08:04:23;;;;;;;;;;;7.60;13.68;;;;;;2671886;76;20889;-92
2023/04/03 08:07:51;;;;;;;;;;;7.67;13.66;;;;;;2672253;76;20478;-92
2023/04/03 08:11:20;;;;;;;;;;;7.64;13.29;;;;;;2672238;76;20462;-92
2023/04/03 08:14:48;;;;;;;;;;;7.62;13.17;;;;;;2672483;76;20498;-92
2023/04/03 08:18:18;;;;;;;;;;;7.62;12.46;;;;;;2671949;76;20475;-93
2023/04/03 08:21:46;;;;;;;;;;;7.70;12.25;;;;;;2672226;76;20418;-93
2023/04/03 08:25:17;;;;;;;;;;;7.91;12.28;;;;;;2670360;76;20470;-94
2023/04/03 08:28:55;;;;;;;;;;;7.97;12.33;;;;;;2672399;76;20431;-93
2023/04/03 08:32:31;;;;;;;;;;;8.09;11.83;;;;;;2672386;76;20431;-93
2023/04/03 08:36:04;;;;;;;;;;;8.37;11.37;;;;;;2672395;76;20450;-93
2023/04/03 08:39:37;;;;;;;;;;;8.72;11.48;;;;;;2671096;76;20420;-93
2023/04/03 08:43:05;;;;;;;;;;;9.11;11.56;;;;;;2671573;76;20509;-94
2023/04/03 08:46:34;;;;;;;;;;;9.07;10.95;;;;;;2672344;76;20461;-93
2023/04/03 08:50:10;;;;;;;;;;;9.29;11.13;;;;;;2671341;76;20321;-93
2023/04/03 08:53:46;;;;;;;;;;;9.49;10.93;;;;;;2671010;76;20477;-94
2023/04/03 08:57:17;;;;;;;;;;;9.57;10.60;;;;;;2670746;76;20349;-93
2023/04/03 09:00:51;;;;;;;;;;;9.76;10.91;;;;;;2671350;76;20352;-94
2023/04/03 09:04:37;;;;;;;;;;;9.85;10.63;;;;;;2671769;76;20922;-93
2023/04/03 09:08:02;;;;;;;;;;;9.60;9.51;;;;;;2670230;76;20861;-93
2023/04/03 09:11:33;;;;;;;;;;;9.25;6.33;;;;;;2671457;76;20456;-93
2023/04/03 09:15:01;;;;;;;;;;;9.18;6.33;;;;;;2671224;76;20431;-93
2023/04/03 09:18:29;;;;;;;;;;;9.09;6.98;;;;;;2672238;76;20938;-91
2023/04/03 09:22:06;;;;;;;;;;;9.01;8.37;;;;;;2670525;76;20372;-93
2023/04/03 09:25:33;;;;;;;;;;;8.94;6.78;;;;;;2670903;76;20425;-93
2023/04/03 09:29:06;;;;;;;;;;;8.95;7.28;;;;;;2671974;76;20940;-93
2023/04/03 09:32:37;;;;;;;;;;;8.94;8.09;;;;;;2670860;76;20378;-93
2023/04/03 09:36:08;;;;;;;;;;;8.38;8.32;;;;;;2671036;76;20910;-93
2023/04/03 09:39:36;;;;;;;;;;;7.85;8.38;;;;;;2671722;76;20481;-93
2023/04/03 09:43:06;;;;;;;;;;;7.60;8.93;;;;;;2671329;76;20461;-93
2023/04/03 09:46:38;;;;;;;;;;;7.38;9.75;;;;;;2671476;76;21033;-93
2023/04/03 09:50:13;;;;;;;;;;;7.13;10.03;;;;;;2671643;76;20477;-93
2023/04/03 09:53:38;;;;;;;;;;;7.11;10.72;;;;;;2671773;76;20473;-93
2023/04/03 10:00:51;;;;;;;;;;;7.35;10.62;;;;;;2669856;76;20923;-92
2023/04/03 10:04:13;;;;;;;;;;;7.55;10.12;;;;;;2671456;76;20533;-93
2023/04/03 10:07:41;;;;;;;;;;;7.44;9.14;;;;;;2670882;76;20435;-93
2023/04/03 10:11:18;;;;;;;;;;;7.19;8.50;;;;;;2671987;76;20462;-93
2023/04/03 10:14:45;;;;;;;;;;;7.14;8.76;;;;;;2671249;76;20915;-93
2023/04/03 10:18:16;;;;;;;;;;;7.53;9.08;;;;;;2671565;76;20485;-93
2023/04/03 10:21:44;;;;;;;;;;;7.76;7.64;;;;;;2670723;76;20499;-92
2023/04/03 10:25:14;;;;;;;;;;;7.93;7.37;;;;;;2671761;76;20917;-93
2023/04/03 10:28:42;;;;;;;;;;;7.99;6.02;;;;;;2671896;76;20448;-93
2023/04/03 10:32:13;;;;;;;;;;;8.14;5.41;;;;;;2672925;76;20343;-93
2023/04/03 10:35:51;;;;;;;;;;;8.27;4.30;;;;;;2671214;76;20481;-93
2023/04/03 10:39:14;;;;;;;;;;;8.19;3.13;;;;;;2672434;76;20312;-92
2023/04/03 10:42:44;;;;;;;;;;;8.49;3.03;;;;;;2671745;76;21170;-92
2023/04/03 10:46:16;;;;;;;;;;;8.73;3.54;;;;;;2671851;76;20491;-93
2023/04/03 10:49:46;;;;;;;;;;;8.85;3.59;;;;;;2672177;76;20316;-92
2023/04/03 10:53:14;;;;;;;;;;;8.68;1.56;;;;;;2671722;76;20453;-93
2023/04/03 10:56:45;;;;;;;;;;;8.16;0.32;;;;;;2671366;76;21375;-92
2023/04/03 11:00:13;;;;;;;;;;;7.96;1.06;;;;;;2671529;76;20314;-93
2023/04/03 11:03:42;;;;;;;;;;;7.61;0.55;;;;;;2671567;76;20427;-93
2023/04/03 11:07:11;;;;;;;;;;;7.32;-0.50;;;;;;2672161;76;20402;-92
2023/04/03 11:10:39;;;;;;;;;;;7.56;0.52;;;;;;2671728;76;20435;-93
2023/04/03 11:14:07;;;;;;;;;;;7.48;0.05;;;;;;2672118;76;20430;-93
2023/04/03 11:17:37;;;;;;;;;;;7.75;-0.66;;;;;;2670955;76;20456;-93
2023/04/03 11:21:05;;;;;;;;;;;8.19;-0.16;;;;;;2668374;76;20477;-93
2023/04/03 11:28:03;;;;;;;;;;;8.94;-4.06;;;;;;2669206;76;20427;-93
2023/04/03 11:31:35;;;;;;;;;;;9.57;-1.73;;;;;;2669060;76;21948;-93
2023/04/03 11:35:03;;;;;;;;;;;9.94;-1.80;;;;;;2670272;76;20463;-92
2023/04/03 11:38:34;;;;;;;;;;;10.21;-3.31;;;;;;2670459;76;20367;-92
2023/04/03 11:42:01;;;;;;;;;;;10.27;118.60;;;;;;2670221;76;20470;-93
2023/04/03 11:45:31;;;;;;;;;;;10.45;118.89;;;;;;2670177;76;20423;-92
2023/04/03 11:48:59;;;;;;;;;;;10.81;118.99;;;;;;2670333;76;20491;-93
2023/04/03 11:52:27;;;;;;;;;;;11.37;-3.27;;;;;;2670538;76;20430;-92
2023/04/03 11:56:00;;;;;;;;;;;11.48;117.70;;;;;;2669636;76;20911;-92
2023/04/03 11:59:34;;;;;;;;;;;11.54;115.44;;;;;;2669409;76;20891;-92
2023/04/03 12:03:02;;;;;;;;;;;11.78;117.00;;;;;;2670063;76;20452;-92
2023/04/03 12:06:33;;;;;;;;;;;11.79;117.04;;;;;;2670565;76;20981;-92
2023/04/03 12:10:09;;;;;;;;;;;11.30;117.05;;;;;;2670118;76;20361;-92
2023/04/03 12:13:39;;;;;;;;;;;11.02;117.37;;;;;;2669863;76;20419;-92
2023/04/03 12:17:07;;;;;;;;;;;10.27;117.92;;;;;;2669105;76;20432;-91
2023/04/03 12:20:35;;;;;;;;;;;10.00;118.15;;;;;;2668578;76;20999;-90
2023/04/03 12:24:04;;;;;;;;;;;10.64;118.79;;;;;;2669721;76;20450;-92
2023/04/03 12:27:32;;;;;;;;;;;10.78;118.53;;;;;;2668357;76;20452;-92
2023/04/03 12:31:01;;;;;;;;;;;10.58;118.81;;;;;;2669618;76;20484;-92
2023/04/03 12:34:34;;;;;;;;;;;10.78;-5.86;;;;;;2669722;76;20474;-92
2023/04/03 12:37:59;;;;;;;;;;;10.96;-5.35;;;;;;2670718;76;20448;-92
2023/04/03 12:41:31;;;;;;;;;;;11.19;-5.62;;;;;;2670936;76;20512;-92
2023/04/03 12:44:59;;;;;;;;;;;11.26;-5.62;;;;;;2670300;76;20409;-91
2023/04/03 12:48:28;;;;;;;;;;;11.44;117.79;;;;;;2670760;76;20444;-91
2023/04/03 12:51:56;;;;;;;;;;;11.85;118.72;;;;;;2670357;76;20482;-92
2023/04/03 12:55:24;;;;;;;;;;;11.82;-6.00;;;;;;2670443;76;20476;-91
2023/04/03 12:58:52;;;;;;;;;;;11.20;116.78;;;;;;2669614;76;20424;-91
2023/04/03 13:02:21;;;;;;;;;;;10.85;-5.77;;;;;;2669431;76;20477;-92
2023/04/03 13:05:49;;;;;;;;;;;10.00;117.54;;;;;;2669205;76;20447;-91
2023/04/03 13:09:25;;;;;;;;;;;9.62;118.80;;;;;;2669382;76;21181;-91
2023/04/03 13:12:47;;;;;;;;;;;9.69;-5.10;;;;;;2669222;76;20462;-90
2023/04/03 13:16:15;;;;;;;;;;;9.55;118.77;;;;;;2667460;76;20446;-91
2023/04/03 13:19:43;;;;;;;;;;;9.88;-4.84;;;;;;2666975;76;20915;-91
2023/04/03 13:23:17;;;;;;;;;;;10.05;-5.37;;;;;;2667398;76;20413;-91
2023/04/03 13:26:45;;;;;;;;;;;9.96;117.81;;;;;;2668342;76;20445;-91
2023/04/03 13:30:16;;;;;;;;;;;10.05;116.15;;;;;;2669051;76;20424;-91
2023/04/03 13:33:44;;;;;;;;;;;10.31;116.91;;;;;;2668409;76;20451;-91
2023/04/03 13:37:13;;;;;;;;;;;10.49;115.32;;;;;;2669396;76;20447;-91
2023/04/03 13:40:41;;;;;;;;;;;10.54;113.68;;;;;;2669563;76;20437;-90
2023/04/03 13:44:09;;;;;;;;;;;10.92;116.09;;;;;;2669313;76;20453;-91
2023/04/03 13:47:37;;;;;;;;;;;10.88;116.89;;;;;;2669590;76;20919;-90
2023/04/03 13:51:08;;;;;;;;;;;10.90;117.87;;;;;;2669236;76;20422;-90
2023/04/03 13:54:36;;;;;;;;;;;10.64;118.30;;;;;;2669232;76;20881;-91
2023/04/03 13:58:05;;;;;;;;;;;10.38;118.77;;;;;;2669260;76;20808;-91
2023/04/03 14:01:33;;;;;;;;;;;10.13;118.45;;;;;;2669224;76;20469;-90
2023/04/03 14:05:03;;;;;;;;;;;10.05;116.37;;;;;;2670357;76;20429;-90
2023/04/03 14:08:31;;;;;;;;;;;10.63;118.35;;;;;;2670152;76;20788;-91
2023/04/03 14:12:00;;;;;;;;;;;11.02;116.05;;;;;;2668506;76;20428;-89
2023/04/03 14:15:28;;;;;;;;;;;10.63;113.48;;;;;;2669933;76;20970;-90
2023/04/03 14:18:56;;;;;;;;;;;9.68;111.00;;;;;;2669794;76;20427;-90
2023/04/03 14:22:25;;;;;;;;;;;9.15;111.40;;;;;;2669551;76;20515;-90
2023/04/03 14:25:54;;;;;;;;;;;8.85;110.97;;;;;;2669237;76;20460;-90
2023/04/03 14:29:25;;;;;;;;;;;8.80;112.50;;;;;;2670661;76;20323;-90
2023/04/03 14:32:57;;;;;;;;;;;8.90;113.34;;;;;;2670921;76;20549;-90
2023/04/03 14:36:25;;;;;;;;;;;9.01;113.92;;;;;;2670680;76;20448;-89
2023/04/03 14:39:54;;;;;;;;;;;8.93;112.82;;;;;;2669558;76;20438;-89
2023/04/03 14:43:22;;;;;;;;;;;8.95;114.38;;;;;;2670710;76;20457;-88
2023/04/03 14:46:50;;;;;;;;;;;8.73;113.82;;;;;;2670663;76;20981;-88
2023/04/03 14:50:23;;;;;;;;;;;8.65;114.34;;;;;;2669769;76;20448;-89
2023/04/03 14:53:49;;;;;;;;;;;8.70;113.32;;;;;;2671227;76;20467;-89
2023/04/03 14:57:17;;;;;;;;;;;8.92;114.75;;;;;;2671897;76;20491;-89
2023/04/03 15:00:45;;;;;;;;;;;8.70;113.15;;;;;;2671059;76;20439;-89
2023/04/03 15:04:13;;;;;;;;;;;8.87;113.35;;;;;;2670545;76;20434;-89
2023/04/03 15:07:47;;;;;;;;;;;9.19;112.99;;;;;;2671490;76;20463;-88
2023/04/03 15:11:15;;;;;;;;;;;11.73;111.02;;;;;;2669582;76;20434;-89
2023/04/03 15:14:44;;;;;;;;;;;14.81;109.52;;;;;;2671537;76;20458;-91
2023/04/03 15:18:12;;;;;;;;;;;18.50;104.53;;;;;;2670681;76;20445;-92
2023/04/03 15:21:40;;;;;;;;;;;19.72;97.61;;;;;;2671472;76;21029;-91
2023/04/03 15:25:08;;;;;;;;;;;21.89;97.39;;;;;;2670515;76;20941;-92
2023/04/03 15:28:36;;;;;;;;;;;22.54;95.20;;;;;;2670165;76;20457;-92
2023/04/03 15:32:05;;;;;;;;;;;22.77;90.55;;;;;;2670173;76;20435;-91
2023/04/03 15:35:33;;;;;;;;;;;22.51;86.91;;;;;;2670410;76;20428;-91
2023/04/03 15:39:01;;;;;;;;;;;22.48;86.92;;;;;;2669425;76;20471;-92
2023/04/03 15:42:29;;;;;;;;;;;22.61;87.81;;;;;;2669620;76;20438;-92
2023/04/03 15:45:57;;;;;;;;;;;19.08;88.05;;;;;;2669816;76;20460;-92
2023/04/03 15:49:26;;;;;;;;;;;20.32;90.72;;;;;;2670190;76;20437;-91
2023/04/03 15:52:57;;;;;;;;;;;21.95;88.53;;;;;;2668160;76;20533;-92
2023/04/03 15:56:26;;;;;;;;;;;22.72;87.37;;;;;;2668146;76;20451;-92
2023/04/03 15:59:54;;;;;;;;;;;23.03;85.85;;;;;;2670001;76;20417;-93
2023/04/03 16:03:24;;;;;;;;;;;23.30;83.87;;;;;;2670416;76;20895;-92
2023/04/03 16:06:52;;;;;;;;;;;22.98;82.13;;;;;;2670645;76;20450;-92
2023/04/03 16:10:20;;;;;;;;;;;22.42;81.06;;;;;;2671125;76;20469;-92
2023/04/03 16:13:54;;;;;;;;;;;23.07;83.57;;;;;;2670548;76;20431;-92
2023/04/03 16:17:18;;;;;;;;;;;23.83;84.20;;;;;;2669435;76;20508;-92
2023/04/03 16:20:46;;;;;;;;;;;23.86;83.72;;;;;;2671046;76;20444;-92
2023/04/03 16:24:15;;;;;;;;;;;23.83;83.17;;;;;;2670371;76;20418;-92
2023/04/03 16:27:43;;;;;;;;;;;23.91;82.03;;;;;;2670642;76;20954;-92
2023/04/03 16:31:11;;;;;;;;;;;23.40;79.32;;;;;;2669729;76;20481;-92
2023/04/03 16:34:40;;;;;;;;;;;22.97;76.95;;;;;;2670457;76;20478;-92
2023/04/03 16:38:08;;;;;;;;;;;23.38;77.69;;;;;;2670299;76;20447;-92
2023/04/03 16:41:36;;;;;;;;;;;23.09;77.99;;;;;;2670556;76;20464;-92
2023/04/03 16:45:05;;;;;;;;;;;22.35;77.57;;;;;;2669695;76;20444;-92
2023/04/03 16:48:34;;;;;;;;;;;22.11;78.90;;;;;;2669219;76;20459;-92
2023/04/03 16:52:08;;;;;;;;;;;21.84;79.29;;;;;;2670484;76;20457;-92
2023/04/03 16:55:35;;;;;;;;;;;21.07;79.43;;;;;;2670930;76;20477;-92
2023/04/03 16:59:03;;;;;;;;;;;20.33;79.80;;;;;;2670540;76;20465;-91
2023/04/03 17:02:38;;;;;;;;;;;19.27;80.56;;;;;;2669704;76;20484;-92
2023/04/03 17:06:06;;;;;;;;;;;18.68;82.56;;;;;;2669685;76;20460;-91
2023/04/03 17:09:34;;;;;;;;;;;17.75;83.46;;;;;;2670911;76;20460;-91
2023/04/03 17:13:02;;;;;;;;;;;15.17;84.61;;;;;;2671060;76;20926;-91
2023/04/03 17:16:31;;;;;;;;;;;15.32;87.16;;;;;;2670276;76;20666;-91
2023/04/03 17:19:59;;;;;;;;;;;11.14;87.30;;;;;;2670468;76;20441;-91
2023/04/03 17:23:28;;;;;;;;;;;8.79;94.67;;;;;;2670734;76;20415;-91
2023/04/03 17:26:56;;;;;;;;;;;7.60;99.00;;;;;;2671472;76;20413;-91
2023/04/03 17:30:24;;;;;;;;;;;6.86;101.48;;;;;;2671241;76;20989;-90
2023/04/03 17:33:53;;;;;;;;;;;6.27;102.16;;;;;;2670915;76;20418;-91
2023/04/03 17:37:21;;;;;;;;;;;5.94;103.57;;;;;;2671837;76;20927;-91
2023/04/03 17:40:49;;;;;;;;;;;5.54;104.05;;;;;;2672348;76;20471;-91
2023/04/03 17:44:18;;;;;;;;;;;5.26;105.79;;;;;;2671864;76;20535;-91
2023/04/03 17:47:46;;;;;;;;;;;4.95;106.67;;;;;;2671315;76;20445;-91
2023/04/03 17:51:14;;;;;;;;;;;4.71;107.11;;;;;;2672173;76;20442;-91
2023/04/03 17:54:42;;;;;;;;;;;4.57;107.43;;;;;;2671923;76;20910;-91
2023/04/03 17:58:10;;;;;;;;;;;4.46;108.24;;;;;;2672404;76;20452;-91
2023/04/03 18:01:39;;;;;;;;;;;4.36;109.00;;;;;;2671591;76;20432;-91
2023/04/03 18:05:08;;;;;;;;;;;4.32;109.94;;;;;;2668988;76;20297;-91
2023/04/03 18:08:37;;;;;;;;;;;4.36;110.68;;;;;;2671410;76;20403;-92
2023/04/03 18:12:05;;;;;;;;;;;4.42;111.62;;;;;;2672155;76;20442;-91
2023/04/03 18:15:33;;;;;;;;;;;4.52;111.99;;;;;;2671530;76;20421;-91
2023/04/03 18:19:01;;;;;;;;;;;4.62;113.00;;;;;;2670047;76;20437;-90
2023/04/03 18:22:29;;;;;;;;;;;4.64;113.13;;;;;;2671187;76;20910;-90
2023/04/03 18:26:00;;;;;;;;;;;4.59;113.21;;;;;;2670108;76;20463;-91
2023/04/03 18:29:28;;;;;;;;;;;4.58;112.90;;;;;;2670177;76;20444;-91
2023/04/03 18:32:56;;;;;;;;;;;4.51;113.00;;;;;;2670530;76;20433;-91
2023/04/03 18:36:25;;;;;;;;;;;4.45;112.68;;;;;;2671231;76;20902;-91
2023/04/03 18:39:54;;;;;;;;;;;4.37;112.52;;;;;;2671259;76;20443;-91
2023/04/03 18:43:22;;;;;;;;;;;4.35;113.32;;;;;;2669947;76;20428;-91
2023/04/03 18:46:50;;;;;;;;;;;4.30;114.07;;;;;;2670041;76;20439;-91
2023/04/03 18:50:21;;;;;;;;;;;4.21;114.12;;;;;;2671195;76;20464;-91
2023/04/03 18:53:49;;;;;;;;;;;4.09;113.39;;;;;;2670447;76;20428;-91
2023/04/03 18:57:17;;;;;;;;;;;4.09;113.31;;;;;;2671318;76;20891;-91
2023/04/03 19:00:45;;;;;;;;;;;4.09;113.74;;;;;;2670921;76;20425;-91
2023/04/03 19:04:14;;;;;;;;;;;4.07;114.88;;;;;;2670738;76;20450;-91
2023/04/03 19:07:43;;;;;;;;;;;3.94;114.81;;;;;;2671014;76;20429;-91
2023/04/03 19:11:11;;;;;;;;;;;3.83;114.90;;;;;;2670921;76;20440;-90
2023/04/03 19:14:39;;;;;;;;;;;3.62;114.86;;;;;;2671389;76;20663;-90
2023/04/03 19:18:07;;;;;;;;;;;3.43;114.03;;;;;;2669978;76;20789;-90
2023/04/03 19:21:39;;;;;;;;;;;3.39;114.13;;;;;;2670531;76;20522;-91
2023/04/03 19:25:05;;;;;;;;;;;3.25;114.66;;;;;;2671179;76;20492;-91
2023/04/03 19:28:33;;;;;;;;;;;3.14;115.34;;;;;;2669102;76;20534;-91
2023/04/03 19:32:01;;;;;;;;;;;3.03;115.35;;;;;;2669420;76;20448;-90
2023/04/03 19:35:30;;;;;;;;;;;2.97;116.04;;;;;;2668876;76;21008;-91
2023/04/03 19:38:58;;;;;;;;;;;2.93;116.54;;;;;;2669650;76;20466;-91
2023/04/03 19:42:26;;;;;;;;;;;2.95;116.66;;;;;;2669241;76;20469;-92
2023/04/03 19:45:54;;;;;;;;;;;2.95;116.34;;;;;;2669028;76;20481;-89
2023/04/03 19:49:23;;;;;;;;;;;3.00;116.71;;;;;;2667717;76;20582;-91
2023/04/03 19:52:51;;;;;;;;;;;2.97;116.40;;;;;;2669574;76;20466;-91
2023/04/03 19:56:22;;;;;;;;;;;2.97;116.69;;;;;;2671123;76;20987;-90
2023/04/03 19:59:52;;;;;;;;;;;2.87;117.22;;;;;;2669729;76;20882;-91
2023/04/03 20:03:20;;;;;;;;;;;2.72;117.11;;;;;;2669891;76;20494;-91
2023/04/03 20:06:49;;;;;;;;;;;2.66;117.15;;;;;;2673370;76;20676;-91
2023/04/03 20:10:17;;;;;;;;;;;2.60;117.46;;;;;;2670635;76;20480;-90
2023/04/03 20:13:49;;;;;;;;;;;2.47;117.55;;;;;;2669143;76;21655;-90
2023/04/03 20:17:20;;;;;;;;;;;2.37;117.46;;;;;;2668100;76;20836;-91
2023/04/03 20:20:48;;;;;;;;;;;2.28;117.28;;;;;;2669336;76;20905;-90
2023/04/03 20:24:17;;;;;;;;;;;2.23;117.52;;;;;;2670547;76;20981;-91
2023/04/03 20:27:45;;;;;;;;;;;2.22;117.83;;;;;;2671234;76;20472;-90
2023/04/03 20:31:13;;;;;;;;;;;2.25;118.02;;;;;;2671246;76;20459;-91
2023/04/03 20:34:41;;;;;;;;;;;2.34;118.22;;;;;;2671503;76;20940;-90
2023/04/03 20:38:10;;;;;;;;;;;2.41;118.33;;;;;;2670799;76;20354;-91